AVA223 SKPE-SKBO
Flight info
| Callsign | AVA223 |
|---|---|
| Flight time | 0h 31m |
| Altitude | 25000 |
| Route | TOLIM1C TOLIM TOLIM5E |
| Aircraft | A320/M-SDE3FGHIRWY/LB1 |
Departure
| Time | 2026-05-07 04:16 |
|---|---|
| Airport | Matecaña International Airport (SKPE) |
Arrival
| Time | 2026-05-07 04:47 |
|---|---|
| Airport | El Dorado International Airport (SKBO) |
| Time | Latitude | Longitude | Altitude | Speed | Heading |
|---|---|---|---|---|---|
| 2026-05-07 03:59 | 4.81471 | -75.73786 | 4417 ft | 0 kts | 342° |
| 2026-05-07 04:05 | 4.81466 | -75.73784 | 4417 ft | 4 kts | 345° |
| 2026-05-07 04:05 | 4.81442 | -75.73783 | 4418 ft | 4 kts | 32° |
| 2026-05-07 04:05 | 4.81429 | -75.73802 | 4417 ft | 4 kts | 82° |
| 2026-05-07 04:06 | 4.81426 | -75.73829 | 4418 ft | 4 kts | 76° |
| 2026-05-07 04:06 | 4.81421 | -75.73844 | 4416 ft | 3 kts | 353° |
| 2026-05-07 04:06 | 4.81420 | -75.73845 | 4415 ft | 0 kts | 341° |
| 2026-05-07 04:12 | 4.81424 | -75.73853 | 4414 ft | 1 kts | 277° |
| 2026-05-07 04:12 | 4.81416 | -75.73855 | 4414 ft | 2 kts | 205° |
| 2026-05-07 04:12 | 4.81384 | -75.73870 | 4413 ft | 8 kts | 210° |
| 2026-05-07 04:13 | 4.81326 | -75.73920 | 4410 ft | 15 kts | 224° |
| 2026-05-07 04:13 | 4.81266 | -75.74029 | 4406 ft | 21 kts | 250° |
| 2026-05-07 04:13 | 4.81214 | -75.74193 | 4398 ft | 28 kts | 252° |
| 2026-05-07 04:13 | 4.81143 | -75.74405 | 4385 ft | 35 kts | 251° |
| 2026-05-07 04:14 | 4.81064 | -75.74657 | 4364 ft | 40 kts | 252° |
| 2026-05-07 04:14 | 4.80996 | -75.74856 | 4355 ft | 12 kts | 250° |
| 2026-05-07 04:14 | 4.80966 | -75.74892 | 4361 ft | 1 kts | 137° |
| 2026-05-07 04:14 | 4.80968 | -75.74885 | 4362 ft | 1 kts | 78° |
| 2026-05-07 04:15 | 4.80971 | -75.74878 | 4349 ft | 2 kts | 71° |
| 2026-05-07 04:15 | 4.80974 | -75.74870 | 4350 ft | 0 kts | 71° |
| 2026-05-07 04:15 | 4.81035 | -75.74686 | 4365 ft | 65 kts | 72° |
| 2026-05-07 04:15 | 4.81244 | -75.74038 | 4405 ft | 130 kts | 72° |
| 2026-05-07 04:16 | 4.81462 | -75.73360 | 4450 ft | 170 kts | 72° |
| 2026-05-07 04:16 | 4.81840 | -75.72184 | 5104 ft | 182 kts | 74° |
| 2026-05-07 04:16 | 4.82031 | -75.70928 | 6005 ft | 180 kts | 93° |
| 2026-05-07 04:16 | 4.81754 | -75.69740 | 7043 ft | 172 kts | 115° |
| 2026-05-07 04:17 | 4.81059 | -75.68786 | 7984 ft | 171 kts | 141° |
| 2026-05-07 04:17 | 4.79990 | -75.68255 | 8664 ft | 177 kts | 169° |
| 2026-05-07 04:17 | 4.78648 | -75.68289 | 8885 ft | 217 kts | 193° |
| 2026-05-07 04:17 | 4.77206 | -75.68845 | 9717 ft | 229 kts | 205° |
| 2026-05-07 04:18 | 4.75834 | -75.69941 | 10019 ft | 276 kts | 225° |
| 2026-05-07 04:18 | 4.74447 | -75.71470 | 10046 ft | 325 kts | 226° |
| 2026-05-07 04:18 | 4.72815 | -75.73256 | 10047 ft | 367 kts | 226° |
| 2026-05-07 04:18 | 4.71283 | -75.75444 | 10045 ft | 402 kts | 244° |
| 2026-05-07 04:19 | 4.70163 | -75.78105 | 10077 ft | 425 kts | 244° |
| 2026-05-07 04:19 | 4.68923 | -75.80767 | 10385 ft | 418 kts | 240° |
| 2026-05-07 04:19 | 4.67141 | -75.82982 | 10878 ft | 401 kts | 216° |
| 2026-05-07 04:19 | 4.64733 | -75.84182 | 11765 ft | 379 kts | 191° |
| 2026-05-07 04:20 | 4.62155 | -75.84303 | 12366 ft | 369 kts | 167° |
| 2026-05-07 04:20 | 4.59778 | -75.83396 | 12977 ft | 368 kts | 149° |
| 2026-05-07 04:20 | 4.57510 | -75.82192 | 14008 ft | 371 kts | 149° |
| 2026-05-07 04:21 | 4.52901 | -75.79736 | 15702 ft | 380 kts | 149° |
| 2026-05-07 04:21 | 4.50552 | -75.78480 | 16444 ft | 384 kts | 149° |
| 2026-05-07 04:21 | 4.48348 | -75.76965 | 17142 ft | 385 kts | 135° |
| 2026-05-07 04:21 | 4.46522 | -75.75000 | 17856 ft | 386 kts | 126° |
| 2026-05-07 04:22 | 4.45080 | -75.72732 | 18481 ft | 388 kts | 114° |
| 2026-05-07 04:22 | 4.43992 | -75.70241 | 19017 ft | 392 kts | 110° |
| 2026-05-07 04:22 | 4.43048 | -75.67665 | 19552 ft | 396 kts | 107° |
| 2026-05-07 04:22 | 4.42203 | -75.65017 | 20026 ft | 401 kts | 105° |
| 2026-05-07 04:23 | 4.41408 | -75.62317 | 20511 ft | 406 kts | 105° |
| 2026-05-07 04:23 | 4.40621 | -75.59581 | 20986 ft | 411 kts | 105° |
| 2026-05-07 04:23 | 4.39815 | -75.56819 | 21425 ft | 415 kts | 105° |
| 2026-05-07 04:23 | 4.39064 | -75.54052 | 21868 ft | 419 kts | 99° |
| 2026-05-07 04:24 | 4.38781 | -75.51148 | 22302 ft | 421 kts | 88° |
| 2026-05-07 04:24 | 4.39071 | -75.48195 | 22236 ft | 434 kts | 77° |
| 2026-05-07 04:24 | 4.40051 | -75.45296 | 22217 ft | 444 kts | 64° |
| 2026-05-07 04:24 | 4.41550 | -75.42560 | 21987 ft | 454 kts | 60° |
| 2026-05-07 04:25 | 4.43122 | -75.39739 | 22029 ft | 455 kts | 61° |
| 2026-05-07 04:25 | 4.44642 | -75.36995 | 22773 ft | 450 kts | 61° |
| 2026-05-07 04:25 | 4.46184 | -75.34218 | 22501 ft | 463 kts | 61° |
| 2026-05-07 04:25 | 4.47768 | -75.31369 | 22296 ft | 473 kts | 61° |
| 2026-05-07 04:26 | 4.49385 | -75.28459 | 22093 ft | 481 kts | 61° |
| 2026-05-07 04:26 | 4.51013 | -75.25524 | 22124 ft | 482 kts | 61° |
| 2026-05-07 04:26 | 4.52647 | -75.22575 | 22115 ft | 485 kts | 61° |
| 2026-05-07 04:26 | 4.54284 | -75.19624 | 22106 ft | 486 kts | 61° |
| 2026-05-07 04:27 | 4.55931 | -75.16655 | 22109 ft | 487 kts | 61° |
| 2026-05-07 04:27 | 4.57583 | -75.13689 | 22113 ft | 484 kts | 61° |
| 2026-05-07 04:27 | 4.59198 | -75.10795 | 22130 ft | 469 kts | 61° |
| 2026-05-07 04:27 | 4.60774 | -75.07971 | 21986 ft | 461 kts | 61° |
| 2026-05-07 04:28 | 4.62326 | -75.05185 | 21739 ft | 456 kts | 61° |
| 2026-05-07 04:28 | 4.63862 | -75.02424 | 21516 ft | 451 kts | 61° |
| 2026-05-07 04:28 | 4.65364 | -74.99715 | 21505 ft | 441 kts | 61° |
| 2026-05-07 04:28 | 4.66853 | -74.97023 | 21322 ft | 446 kts | 61° |
| 2026-05-07 04:29 | 4.68377 | -74.94269 | 21169 ft | 458 kts | 61° |
| 2026-05-07 04:29 | 4.69939 | -74.91447 | 21029 ft | 467 kts | 61° |
| 2026-05-07 04:29 | 4.71509 | -74.88618 | 20858 ft | 460 kts | 61° |
| 2026-05-07 04:29 | 4.73051 | -74.85843 | 20669 ft | 453 kts | 61° |
| 2026-05-07 04:30 | 4.74587 | -74.83104 | 20481 ft | 447 kts | 59° |
| 2026-05-07 04:30 | 4.76570 | -74.80738 | 20286 ft | 445 kts | 40° |
| 2026-05-07 04:30 | 4.79268 | -74.79246 | 20095 ft | 446 kts | 19° |
| 2026-05-07 04:30 | 4.82329 | -74.78766 | 19927 ft | 447 kts | 2° |
| 2026-05-07 04:31 | 4.85422 | -74.79047 | 19756 ft | 448 kts | 352° |
| 2026-05-07 04:31 | 4.88452 | -74.79752 | 19598 ft | 447 kts | 347° |
| 2026-05-07 04:31 | 4.91445 | -74.80588 | 19441 ft | 445 kts | 347° |
| 2026-05-07 04:31 | 4.94423 | -74.81175 | 19212 ft | 440 kts | 0° |
| 2026-05-07 04:32 | 4.97421 | -74.80799 | 19009 ft | 434 kts | 18° |
| 2026-05-07 04:32 | 5.00303 | -74.79935 | 18836 ft | 432 kts | 20° |
| 2026-05-07 04:32 | 5.03160 | -74.79001 | 18673 ft | 431 kts | 20° |
| 2026-05-07 04:32 | 5.06000 | -74.78044 | 18511 ft | 430 kts | 21° |
| 2026-05-07 04:33 | 5.08837 | -74.77094 | 18339 ft | 429 kts | 21° |
| 2026-05-07 04:33 | 5.11538 | -74.75860 | 18156 ft | 426 kts | 35° |
| 2026-05-07 04:33 | 5.13809 | -74.73981 | 17968 ft | 423 kts | 44° |
| 2026-05-07 04:33 | 5.15963 | -74.71964 | 17803 ft | 423 kts | 45° |
| 2026-05-07 04:34 | 5.18106 | -74.69942 | 17647 ft | 423 kts | 45° |
| 2026-05-07 04:34 | 5.20246 | -74.67914 | 17493 ft | 423 kts | 45° |
| 2026-05-07 04:34 | 5.22385 | -74.65883 | 17336 ft | 424 kts | 45° |
| 2026-05-07 04:34 | 5.24426 | -74.63760 | 17177 ft | 422 kts | 54° |
| 2026-05-07 04:35 | 5.25827 | -74.61191 | 17008 ft | 419 kts | 69° |
| 2026-05-07 04:35 | 5.26865 | -74.58468 | 17002 ft | 416 kts | 70° |
| 2026-05-07 04:35 | 5.27881 | -74.55759 | 17023 ft | 414 kts | 70° |
| 2026-05-07 04:35 | 5.28882 | -74.53067 | 17036 ft | 411 kts | 70° |
| 2026-05-07 04:36 | 5.29876 | -74.50390 | 17036 ft | 410 kts | 70° |
| 2026-05-07 04:36 | 5.30757 | -74.47674 | 17057 ft | 409 kts | 79° |
| 2026-05-07 04:36 | 5.30904 | -74.44840 | 17065 ft | 408 kts | 93° |
| 2026-05-07 04:36 | 5.30698 | -74.41998 | 17063 ft | 409 kts | 94° |
| 2026-05-07 04:37 | 5.30477 | -74.39191 | 17063 ft | 409 kts | 94° |
| 2026-05-07 04:37 | 5.30214 | -74.36352 | 17063 ft | 409 kts | 98° |
| 2026-05-07 04:37 | 5.29270 | -74.33668 | 17101 ft | 413 kts | 120° |
| 2026-05-07 04:37 | 5.27339 | -74.31537 | 17141 ft | 419 kts | 141° |
| 2026-05-07 04:38 | 5.24690 | -74.30260 | 16986 ft | 431 kts | 163° |
| 2026-05-07 04:38 | 5.21675 | -74.30062 | 16825 ft | 442 kts | 185° |
| 2026-05-07 04:38 | 5.18714 | -74.30972 | 16655 ft | 447 kts | 203° |
| 2026-05-07 04:38 | 5.16063 | -74.32408 | 16364 ft | 418 kts | 206° |
| 2026-05-07 04:39 | 5.13622 | -74.33788 | 16216 ft | 388 kts | 206° |
| 2026-05-07 04:39 | 5.11355 | -74.35080 | 16125 ft | 361 kts | 207° |
| 2026-05-07 04:39 | 5.09189 | -74.36203 | 15712 ft | 343 kts | 200° |
| 2026-05-07 04:39 | 5.06883 | -74.37071 | 15215 ft | 366 kts | 194° |
| 2026-05-07 04:40 | 5.04494 | -74.37792 | 15026 ft | 346 kts | 192° |
| 2026-05-07 04:40 | 5.02260 | -74.38408 | 14824 ft | 324 kts | 191° |
| 2026-05-07 04:40 | 5.00085 | -74.38999 | 14160 ft | 324 kts | 191° |
| 2026-05-07 04:40 | 4.97906 | -74.39604 | 13747 ft | 324 kts | 192° |
| 2026-05-07 04:41 | 4.95743 | -74.40151 | 13514 ft | 315 kts | 184° |
| 2026-05-07 04:41 | 4.93605 | -74.40206 | 13387 ft | 301 kts | 169° |
| 2026-05-07 04:41 | 4.91618 | -74.39759 | 13281 ft | 286 kts | 156° |
| 2026-05-07 04:41 | 4.89875 | -74.38897 | 13171 ft | 274 kts | 143° |
| 2026-05-07 04:42 | 4.88451 | -74.37727 | 13185 ft | 257 kts | 131° |
| 2026-05-07 04:42 | 4.87347 | -74.36375 | 13178 ft | 246 kts | 125° |
| 2026-05-07 04:42 | 4.86318 | -74.35014 | 13008 ft | 247 kts | 124° |
| 2026-05-07 04:42 | 4.85286 | -74.33647 | 12706 ft | 245 kts | 124° |
| 2026-05-07 04:43 | 4.84261 | -74.32292 | 12414 ft | 243 kts | 125° |
| 2026-05-07 04:43 | 4.83240 | -74.30942 | 12117 ft | 242 kts | 125° |
| 2026-05-07 04:43 | 4.82225 | -74.29599 | 11812 ft | 241 kts | 125° |
| 2026-05-07 04:43 | 4.81215 | -74.28264 | 11550 ft | 237 kts | 126° |
| 2026-05-07 04:44 | 4.80225 | -74.26955 | 11225 ft | 231 kts | 126° |
| 2026-05-07 04:44 | 4.79281 | -74.25707 | 10925 ft | 218 kts | 126° |
| 2026-05-07 04:44 | 4.78396 | -74.24536 | 10621 ft | 209 kts | 126° |
| 2026-05-07 04:44 | 4.77541 | -74.23400 | 10341 ft | 199 kts | 127° |
| 2026-05-07 04:45 | 4.76748 | -74.22339 | 10184 ft | 182 kts | 126° |
| 2026-05-07 04:45 | 4.76007 | -74.21343 | 9898 ft | 175 kts | 128° |
| 2026-05-07 04:45 | 4.75252 | -74.20399 | 9543 ft | 170 kts | 129° |
| 2026-05-07 04:45 | 4.74541 | -74.19463 | 9303 ft | 169 kts | 124° |
| 2026-05-07 04:46 | 4.73854 | -74.18516 | 9083 ft | 166 kts | 130° |
| 2026-05-07 04:46 | 4.73138 | -74.17600 | 8936 ft | 168 kts | 122° |
| 2026-05-07 04:46 | 4.72429 | -74.16666 | 8783 ft | 169 kts | 121° |
| 2026-05-07 04:46 | 4.71724 | -74.15716 | 8547 ft | 169 kts | 126° |
| 2026-05-07 04:47 | 4.71013 | -74.14775 | 8367 ft | 162 kts | 127° |
| 2026-05-07 04:47 | 4.70476 | -74.14062 | 8365 ft | 92 kts | 127° |
| 2026-05-07 04:47 | 4.70131 | -74.13590 | 8366 ft | 76 kts | 126° |
| 2026-05-07 04:47 | 4.69874 | -74.13313 | 8367 ft | 30 kts | 160° |
| 2026-05-07 04:48 | 4.69755 | -74.13302 | 8366 ft | 12 kts | 164° |
| 2026-05-07 04:48 | 4.69688 | -74.13321 | 8366 ft | 7 kts | 263° |
| 2026-05-07 04:48 | 4.69701 | -74.13368 | 8366 ft | 6 kts | 296° |
| 2026-05-07 04:48 | 4.69723 | -74.13399 | 8366 ft | 6 kts | 304° |
| 2026-05-07 04:49 | 4.69754 | -74.13441 | 8366 ft | 9 kts | 308° |
| 2026-05-07 04:49 | 4.69798 | -74.13496 | 8366 ft | 12 kts | 308° |
| 2026-05-07 04:49 | 4.69832 | -74.13572 | 8366 ft | 12 kts | 242° |
| 2026-05-07 04:49 | 4.69766 | -74.13641 | 8366 ft | 15 kts | 240° |
| 2026-05-07 04:50 | 4.69742 | -74.13715 | 8366 ft | 8 kts | 224° |
| 2026-05-07 04:50 | 4.69717 | -74.13740 | 8366 ft | 1 kts | 224° |
| 2026-05-07 04:50 | 4.69715 | -74.13742 | 8366 ft | 0 kts | 223° |